New Milford, New Jersey
Current Conditions -  °F | °C
As of 12:51 AM on Tuesday 21 Oct 2014 (Local Time) from KTEB Reporting Station
Clear Clear  
Wind Chill: 54°   Ceiling: Unl
Heat Index: 54°   Visibility: 10mi
Dew Point: 44°   Wind: 3mph
Humidity: 69%   Direction: 230°SW
Pressure: 29.95"   Gusts: NA
Location:  40.92°N, 74.03°W
Report Text: KTEB 210451Z 23003KT 10SM CLR 12/07 A2995 RMK AO2 SLP142 T01220067 401610033
Loading
Personal Weather Stations






























Interactive Weather Map New forecast layout! Learn more

10-Day Weather Forecast

Advertisements
Track Severe Weather on mobile